Terminal Aerodrome Forecast
Issued by NWS

Home | Current Version | Previous Version | Text Only | Print | Product List | Glossary On
Versions: 1 2 3 4 5 6 7 8 9 10 11 12 13 14 15
000
FTUS46 KPDT 010500
TAFRDM
TAF
KRDM 010528Z 0106/0206 34004KT P6SM BKN150 OVC200
     FM011800 35003KT P6SM SCT150
     FM012100 32005KT P6SM VCTS SCT150CB BKN200 PROB30 0200/0203 6SM
      -TSRA BKN150CB OVC200
     FM020300 32004KT P6SM BKN150 OVC200=

USA.gov is the U.S. government's official web portal to all federal, state and local government web resources and services.